Terminal Aerodrome Forecast
Issued by NWS Cheyenne, WY

Home | Current Version | Previous Version | Text Only | Print | Product List | Glossary On
Versions: 1 2 3 4 5 6 7 8 9 10 11 12 13 14 15 16 17 18 19 20 21 22 23 24 25 26 27 28 29 30 31 32 33 34 35 36 37 38 39 40 41 42 43 44 45 46 47 48 49 50
000
FTUS45 KCYS 220526
TAFCYS
TAF
KCYS 220526Z 2206/2306 15013G23KT P6SM OVC004
     FM220800 15011KT 3/4SM BR OVC004
     FM221100 13010KT 1SM -RA BR OVC005
     FM221800 13011KT 4SM -RA BR OVC015
     FM230100 15010KT 1SM BR OVC008=

USA.gov is the U.S. government's official web portal to all federal, state and local government web resources and services.